Messwerte Crossville

Temperatur

Temperatur
°C
1573513200 17.00 17.00 11
1573516800 18.00 18.00 11
1573520400 19.00 19.00 11
1573524000 20.00 20.00 11
1573527600 21.00 21.00 10
1573531200 22.00 22.00 4
1573534800 23.00 23.00 3
1573538400 0.00 0.00 2
1573542000 1.00 1.00 0
1573545600 2.00 2.00 -1
1573549200 3.00 3.00 -2
1573552800 4.00 4.00 -2
1573556400 5.00 5.00
1573560000 6.00 6.00 -3
1573563600 7.00 7.00 -4
1573567200 8.00 8.00 -4
1573570800 9.00 9.00 -5
1573574400 10.00 10.00 -5
1573578000 11.00 11.00 -6
1573581600 12.00 12.00 -6
1573585200 13.00 13.00 -6
1573588800 14.00 14.00 -7
1573592400 15.00 15.00
1573596000 16.00 16.00 -7

Aktuellste Messwerte

Wettercharakter
Wetter: bedeckt
Temperatur
-8 °C
Feuchtigkeit
75 %
Wind
15 km/hWindrichtung: Nord
Luftdruck
1026 hPa
Messzeit: 12. November 2019, 17.00Datenquelle: METAR

Weitere Messstationen in der Nähe

Messstation Temperatur Entfernung
Oak Ridge -3 °C 78 km
Knoxville -4 °C 101 km
Chattanooga -3 °C 103 km
Monticello -6 °C 103 km
Smyrna -5 °C 129 km
Somerset -6 °C 129 km
Dalton 0 °C 138 km

Wind

Windrichtung Böen Mittelwind
° km/h km/h
1573513200 17.00 16.00 - 17.00 230° 5
1573516800 18.00 17.00 - 18.00 0
1573520400 19.00 18.00 - 19.00 270° 5
1573524000 20.00 19.00 - 20.00 250° 10
1573527600 21.00 20.00 - 21.00 280° 10
1573531200 22.00 21.00 - 22.00 320° 35 20
1573534800 23.00 22.00 - 23.00 330° 20
1573538400 0.00 23.00 - 0.00 350° 20
1573542000 1.00 0.00 - 1.00 340° 35 25
1573545600 2.00 1.00 - 2.00 350° 30 20
1573549200 3.00 2.00 - 3.00 360° 30 20
1573552800 4.00 3.00 - 4.00 360° 40 20
1573556400 5.00 4.00 - 5.00
1573560000 6.00 5.00 - 6.00 340° 35 25
1573563600 7.00 6.00 - 7.00 350° 30 15
1573567200 8.00 7.00 - 8.00 350° 40 25
1573570800 9.00 8.00 - 9.00 360° 35 20
1573574400 10.00 9.00 - 10.00 340° 30 20
1573578000 11.00 10.00 - 11.00 360° 30 15
1573581600 12.00 11.00 - 12.00 350° 35 20
1573585200 13.00 12.00 - 13.00 350° 30 20
1573588800 14.00 13.00 - 14.00 340° 30 20
1573592400 15.00 14.00 - 15.00
1573596000 16.00 15.00 - 16.00 20° 30 20

Ihre Wetterstation

Fehlt Ihre Wetterstation auf unserem Portal?

Schreiben Sie an network@meteonews.ch

Klima

Wann ist es am wärmsten? Wann regnet es am wenigsten? Unsere Klimadaten geben Auskunft.